sensor_id;sensor_type;location;lat;lon;timestamp;temperature;humidity
4655;DHT22;2340;47.814;9.798;2023-05-07T00:01:50;14.50;99.90
4655;DHT22;2340;47.814;9.798;2023-05-07T00:04:15;14.60;99.90
4655;DHT22;2340;47.814;9.798;2023-05-07T00:06:41;14.60;99.90
4655;DHT22;2340;47.814;9.798;2023-05-07T00:09:06;14.60;99.90
4655;DHT22;2340;47.814;9.798;2023-05-07T00:11:32;14.60;99.90
4655;DHT22;2340;47.814;9.798;2023-05-07T00:13:58;14.70;99.90
4655;DHT22;2340;47.814;9.798;2023-05-07T00:16:24;14.60;99.90
4655;DHT22;2340;47.814;9.798;2023-05-07T00:18:49;14.70;99.90
4655;DHT22;2340;47.814;9.798;2023-05-07T00:21:15;14.60;99.90
4655;DHT22;2340;47.814;9.798;2023-05-07T00:23:41;14.60;99.90
4655;DHT22;2340;47.814;9.798;2023-05-07T00:26:06;14.60;99.90
4655;DHT22;2340;47.814;9.798;2023-05-07T00:28:32;14.60;99.90
4655;DHT22;2340;47.814;9.798;2023-05-07T00:30:57;14.50;99.90
4655;DHT22;2340;47.814;9.798;2023-05-07T00:33:23;14.50;99.90
4655;DHT22;2340;47.814;9.798;2023-05-07T00:35:48;14.50;99.90
4655;DHT22;2340;47.814;9.798;2023-05-07T00:38:14;14.40;99.90
4655;DHT22;2340;47.814;9.798;2023-05-07T00:40:40;14.40;99.90
4655;DHT22;2340;47.814;9.798;2023-05-07T00:43:05;14.50;99.90
4655;DHT22;2340;47.814;9.798;2023-05-07T00:45:32;14.50;99.90
4655;DHT22;2340;47.814;9.798;2023-05-07T00:47:58;14.50;99.90
4655;DHT22;2340;47.814;9.798;2023-05-07T00:50:25;14.50;99.90
4655;DHT22;2340;47.814;9.798;2023-05-07T00:52:50;14.50;99.90
4655;DHT22;2340;47.814;9.798;2023-05-07T00:55:16;14.40;99.90
4655;DHT22;2340;47.814;9.798;2023-05-07T00:57:42;14.30;99.90
4655;DHT22;2340;47.814;9.798;2023-05-07T01:00:08;14.20;99.90
4655;DHT22;2340;47.814;9.798;2023-05-07T01:02:35;14.20;99.90
4655;DHT22;2340;47.814;9.798;2023-05-07T01:05:01;14.10;99.90
4655;DHT22;2340;47.814;9.798;2023-05-07T01:07:28;14.10;99.90
4655;DHT22;2340;47.814;9.798;2023-05-07T01:09:54;14.10;99.90
4655;DHT22;2340;47.814;9.798;2023-05-07T01:12:20;14.10;99.90
4655;DHT22;2340;47.814;9.798;2023-05-07T01:14:45;14.10;99.90
4655;DHT22;2340;47.814;9.798;2023-05-07T01:17:11;14.10;99.90
4655;DHT22;2340;47.814;9.798;2023-05-07T01:19:36;14.00;99.90
4655;DHT22;2340;47.814;9.798;2023-05-07T01:22:03;14.00;99.90
4655;DHT22;2340;47.814;9.798;2023-05-07T01:24:30;14.10;99.90
4655;DHT22;2340;47.814;9.798;2023-05-07T01:26:55;14.00;99.90
4655;DHT22;2340;47.814;9.798;2023-05-07T01:29:21;13.90;99.90
4655;DHT22;2340;47.814;9.798;2023-05-07T01:31:46;13.80;99.90
4655;DHT22;2340;47.814;9.798;2023-05-07T01:34:12;13.90;99.90
4655;DHT22;2340;47.814;9.798;2023-05-07T01:36:38;13.80;99.90
4655;DHT22;2340;47.814;9.798;2023-05-07T01:39:05;13.80;99.90
4655;DHT22;2340;47.814;9.798;2023-05-07T01:41:31;13.90;99.90
4655;DHT22;2340;47.814;9.798;2023-05-07T01:43:56;13.80;99.90
4655;DHT22;2340;47.814;9.798;2023-05-07T01:46:23;13.70;99.90
4655;DHT22;2340;47.814;9.798;2023-05-07T01:48:49;13.70;99.90
4655;DHT22;2340;47.814;9.798;2023-05-07T01:51:15;13.70;99.90
4655;DHT22;2340;47.814;9.798;2023-05-07T01:53:41;13.70;99.90
4655;DHT22;2340;47.814;9.798;2023-05-07T01:56:07;13.70;99.90
4655;DHT22;2340;47.814;9.798;2023-05-07T01:58:32;13.70;99.90
4655;DHT22;2340;47.814;9.798;2023-05-07T02:00:58;13.60;99.90
4655;DHT22;2340;47.814;9.798;2023-05-07T02:03:24;13.70;99.90
4655;DHT22;2340;47.814;9.798;2023-05-07T02:05:50;13.70;99.90
4655;DHT22;2340;47.814;9.798;2023-05-07T02:08:15;13.60;99.90
4655;DHT22;2340;47.814;9.798;2023-05-07T02:10:41;13.60;99.90
4655;DHT22;2340;47.814;9.798;2023-05-07T02:13:06;13.60;99.90
4655;DHT22;2340;47.814;9.798;2023-05-07T02:15:32;13.50;99.90
4655;DHT22;2340;47.814;9.798;2023-05-07T02:18:01;13.50;99.90
4655;DHT22;2340;47.814;9.798;2023-05-07T02:20:27;13.50;99.90
4655;DHT22;2340;47.814;9.798;2023-05-07T02:22:53;13.40;99.90
4655;DHT22;2340;47.814;9.798;2023-05-07T02:25:18;13.40;99.90
4655;DHT22;2340;47.814;9.798;2023-05-07T02:27:44;13.40;99.90
4655;DHT22;2340;47.814;9.798;2023-05-07T02:30:10;13.40;99.90
4655;DHT22;2340;47.814;9.798;2023-05-07T02:32:35;13.40;99.90
4655;DHT22;2340;47.814;9.798;2023-05-07T02:35:01;13.30;99.90
4655;DHT22;2340;47.814;9.798;2023-05-07T02:37:26;13.40;99.90
4655;DHT22;2340;47.814;9.798;2023-05-07T02:39:52;13.30;99.90
4655;DHT22;2340;47.814;9.798;2023-05-07T02:42:17;13.30;99.90
4655;DHT22;2340;47.814;9.798;2023-05-07T02:44:43;13.30;99.90
4655;DHT22;2340;47.814;9.798;2023-05-07T02:47:08;13.30;99.90
4655;DHT22;2340;47.814;9.798;2023-05-07T02:49:34;13.30;99.90
4655;DHT22;2340;47.814;9.798;2023-05-07T02:52:00;13.30;99.90
4655;DHT22;2340;47.814;9.798;2023-05-07T02:54:25;13.30;99.90
4655;DHT22;2340;47.814;9.798;2023-05-07T02:56:51;13.20;99.90
4655;DHT22;2340;47.814;9.798;2023-05-07T02:59:16;13.20;99.90
4655;DHT22;2340;47.814;9.798;2023-05-07T03:01:42;13.20;99.90
4655;DHT22;2340;47.814;9.798;2023-05-07T03:04:09;13.20;99.90
4655;DHT22;2340;47.814;9.798;2023-05-07T03:06:35;13.20;99.90
4655;DHT22;2340;47.814;9.798;2023-05-07T03:09:01;13.10;99.90
4655;DHT22;2340;47.814;9.798;2023-05-07T03:11:27;13.00;99.90
4655;DHT22;2340;47.814;9.798;2023-05-07T03:13:52;13.10;99.90
4655;DHT22;2340;47.814;9.798;2023-05-07T03:16:18;13.00;99.90
4655;DHT22;2340;47.814;9.798;2023-05-07T03:18:43;13.00;99.90
4655;DHT22;2340;47.814;9.798;2023-05-07T03:21:09;12.90;99.90
4655;DHT22;2340;47.814;9.798;2023-05-07T03:23:34;12.90;99.90
4655;DHT22;2340;47.814;9.798;2023-05-07T03:26:00;12.90;99.90
4655;DHT22;2340;47.814;9.798;2023-05-07T03:28:25;12.80;99.90
4655;DHT22;2340;47.814;9.798;2023-05-07T03:30:51;12.80;99.90
4655;DHT22;2340;47.814;9.798;2023-05-07T03:33:16;12.80;99.90
4655;DHT22;2340;47.814;9.798;2023-05-07T03:35:42;12.80;99.90
4655;DHT22;2340;47.814;9.798;2023-05-07T03:38:07;12.80;99.90
4655;DHT22;2340;47.814;9.798;2023-05-07T03:40:33;12.80;99.90
4655;DHT22;2340;47.814;9.798;2023-05-07T03:42:59;12.80;99.90
4655;DHT22;2340;47.814;9.798;2023-05-07T03:45:25;12.70;99.90
4655;DHT22;2340;47.814;9.798;2023-05-07T03:47:50;12.70;99.90
4655;DHT22;2340;47.814;9.798;2023-05-07T03:50:16;12.60;99.90
4655;DHT22;2340;47.814;9.798;2023-05-07T03:52:41;12.70;99.90
4655;DHT22;2340;47.814;9.798;2023-05-07T03:55:07;12.60;99.90
4655;DHT22;2340;47.814;9.798;2023-05-07T03:57:32;12.60;99.90
4655;DHT22;2340;47.814;9.798;2023-05-07T03:59:58;12.60;99.90
4655;DHT22;2340;47.814;9.798;2023-05-07T04:02:23;12.60;99.90
4655;DHT22;2340;47.814;9.798;2023-05-07T04:04:49;12.60;99.90
4655;DHT22;2340;47.814;9.798;2023-05-07T04:07:15;12.50;99.90
4655;DHT22;2340;47.814;9.798;2023-05-07T04:09:40;12.50;99.90
4655;DHT22;2340;47.814;9.798;2023-05-07T04:12:06;12.40;99.90
4655;DHT22;2340;47.814;9.798;2023-05-07T04:14:31;12.40;99.90
4655;DHT22;2340;47.814;9.798;2023-05-07T04:16:58;12.30;99.90
4655;DHT22;2340;47.814;9.798;2023-05-07T04:19:23;12.30;99.90
4655;DHT22;2340;47.814;9.798;2023-05-07T04:21:49;12.40;99.90
4655;DHT22;2340;47.814;9.798;2023-05-07T04:24:14;12.40;99.90
4655;DHT22;2340;47.814;9.798;2023-05-07T04:26:40;12.40;99.90
4655;DHT22;2340;47.814;9.798;2023-05-07T04:29:05;12.40;99.90
4655;DHT22;2340;47.814;9.798;2023-05-07T04:31:31;12.40;99.90
4655;DHT22;2340;47.814;9.798;2023-05-07T04:33:57;12.40;99.90
4655;DHT22;2340;47.814;9.798;2023-05-07T04:36:22;12.40;99.90
4655;DHT22;2340;47.814;9.798;2023-05-07T04:38:48;12.40;99.90
4655;DHT22;2340;47.814;9.798;2023-05-07T04:41:13;12.40;99.90
4655;DHT22;2340;47.814;9.798;2023-05-07T04:43:39;12.40;99.90
4655;DHT22;2340;47.814;9.798;2023-05-07T04:46:05;12.40;99.90
4655;DHT22;2340;47.814;9.798;2023-05-07T04:48:30;12.40;99.90
4655;DHT22;2340;47.814;9.798;2023-05-07T04:50:56;12.50;99.90
4655;DHT22;2340;47.814;9.798;2023-05-07T04:53:21;12.50;99.90
4655;DHT22;2340;47.814;9.798;2023-05-07T04:55:47;12.50;99.90
4655;DHT22;2340;47.814;9.798;2023-05-07T04:58:13;12.50;99.90
4655;DHT22;2340;47.814;9.798;2023-05-07T05:00:39;12.50;99.90
4655;DHT22;2340;47.814;9.798;2023-05-07T05:03:05;12.50;99.90
4655;DHT22;2340;47.814;9.798;2023-05-07T05:05:31;12.60;99.90
4655;DHT22;2340;47.814;9.798;2023-05-07T05:07:56;12.60;99.90
4655;DHT22;2340;47.814;9.798;2023-05-07T05:10:22;12.70;99.90
4655;DHT22;2340;47.814;9.798;2023-05-07T05:12:47;12.80;99.90
4655;DHT22;2340;47.814;9.798;2023-05-07T05:15:13;12.80;99.90
4655;DHT22;2340;47.814;9.798;2023-05-07T05:17:38;12.90;99.90
4655;DHT22;2340;47.814;9.798;2023-05-07T05:20:04;12.90;99.90
4655;DHT22;2340;47.814;9.798;2023-05-07T05:22:31;13.00;99.90
4655;DHT22;2340;47.814;9.798;2023-05-07T05:24:56;13.00;99.90
4655;DHT22;2340;47.814;9.798;2023-05-07T05:27:22;13.10;99.90
4655;DHT22;2340;47.814;9.798;2023-05-07T05:29:47;13.10;99.90
4655;DHT22;2340;47.814;9.798;2023-05-07T05:32:13;13.20;99.90
4655;DHT22;2340;47.814;9.798;2023-05-07T05:34:38;13.30;99.90
4655;DHT22;2340;47.814;9.798;2023-05-07T05:37:04;13.40;99.90
4655;DHT22;2340;47.814;9.798;2023-05-07T05:39:29;13.40;99.90
4655;DHT22;2340;47.814;9.798;2023-05-07T05:41:55;13.50;99.90
4655;DHT22;2340;47.814;9.798;2023-05-07T05:44:20;13.50;99.90
4655;DHT22;2340;47.814;9.798;2023-05-07T05:46:46;13.60;99.90
4655;DHT22;2340;47.814;9.798;2023-05-07T05:49:11;13.60;99.90
4655;DHT22;2340;47.814;9.798;2023-05-07T05:51:37;13.70;99.90
4655;DHT22;2340;47.814;9.798;2023-05-07T05:54:02;13.70;99.90
4655;DHT22;2340;47.814;9.798;2023-05-07T05:56:28;13.70;99.90
4655;DHT22;2340;47.814;9.798;2023-05-07T05:58:53;13.80;99.90
4655;DHT22;2340;47.814;9.798;2023-05-07T06:01:19;13.80;99.90
4655;DHT22;2340;47.814;9.798;2023-05-07T06:03:45;13.80;99.90
4655;DHT22;2340;47.814;9.798;2023-05-07T06:06:10;13.90;99.90
4655;DHT22;2340;47.814;9.798;2023-05-07T06:08:36;14.00;99.90
4655;DHT22;2340;47.814;9.798;2023-05-07T06:11:01;14.00;99.90
4655;DHT22;2340;47.814;9.798;2023-05-07T06:13:27;14.10;99.90
4655;DHT22;2340;47.814;9.798;2023-05-07T06:15:53;14.20;99.90
4655;DHT22;2340;47.814;9.798;2023-05-07T06:18:18;14.30;99.90
4655;DHT22;2340;47.814;9.798;2023-05-07T06:20:44;14.30;99.90
4655;DHT22;2340;47.814;9.798;2023-05-07T06:23:09;14.40;99.90
4655;DHT22;2340;47.814;9.798;2023-05-07T06:25:35;14.50;99.90
4655;DHT22;2340;47.814;9.798;2023-05-07T06:28:00;14.60;99.90
4655;DHT22;2340;47.814;9.798;2023-05-07T06:30:25;14.70;99.90
4655;DHT22;2340;47.814;9.798;2023-05-07T06:32:52;14.70;99.90
4655;DHT22;2340;47.814;9.798;2023-05-07T06:35:17;14.80;99.90
4655;DHT22;2340;47.814;9.798;2023-05-07T06:37:43;14.90;99.90
4655;DHT22;2340;47.814;9.798;2023-05-07T06:40:08;15.00;99.90
4655;DHT22;2340;47.814;9.798;2023-05-07T06:42:35;15.00;99.90
4655;DHT22;2340;47.814;9.798;2023-05-07T06:45:01;15.00;99.90
4655;DHT22;2340;47.814;9.798;2023-05-07T06:47:26;15.10;99.90
4655;DHT22;2340;47.814;9.798;2023-05-07T06:49:52;15.10;99.90
4655;DHT22;2340;47.814;9.798;2023-05-07T06:52:17;15.10;99.90
4655;DHT22;2340;47.814;9.798;2023-05-07T06:54:43;15.30;99.90
4655;DHT22;2340;47.814;9.798;2023-05-07T06:57:08;15.30;99.90
4655;DHT22;2340;47.814;9.798;2023-05-07T06:59:34;15.40;99.90
4655;DHT22;2340;47.814;9.798;2023-05-07T07:01:59;15.40;99.90
4655;DHT22;2340;47.814;9.798;2023-05-07T07:04:25;15.40;99.90
4655;DHT22;2340;47.814;9.798;2023-05-07T07:06:51;15.50;99.90
4655;DHT22;2340;47.814;9.798;2023-05-07T07:09:17;15.50;99.90
4655;DHT22;2340;47.814;9.798;2023-05-07T07:11:42;15.60;99.90
4655;DHT22;2340;47.814;9.798;2023-05-07T07:14:08;15.60;99.90
4655;DHT22;2340;47.814;9.798;2023-05-07T07:16:33;15.70;99.90
4655;DHT22;2340;47.814;9.798;2023-05-07T07:18:59;15.80;99.90
4655;DHT22;2340;47.814;9.798;2023-05-07T07:21:24;15.90;99.90
4655;DHT22;2340;47.814;9.798;2023-05-07T07:23:50;16.00;99.90
4655;DHT22;2340;47.814;9.798;2023-05-07T07:26:16;16.10;99.90
4655;DHT22;2340;47.814;9.798;2023-05-07T07:28:43;16.20;99.90
4655;DHT22;2340;47.814;9.798;2023-05-07T07:31:09;16.30;99.90
4655;DHT22;2340;47.814;9.798;2023-05-07T07:33:34;16.40;99.90
4655;DHT22;2340;47.814;9.798;2023-05-07T07:36:00;16.40;99.90
4655;DHT22;2340;47.814;9.798;2023-05-07T07:38:25;16.50;99.90
4655;DHT22;2340;47.814;9.798;2023-05-07T07:40:51;16.50;99.90
4655;DHT22;2340;47.814;9.798;2023-05-07T07:43:16;16.60;99.90
4655;DHT22;2340;47.814;9.798;2023-05-07T07:45:42;16.60;99.90
4655;DHT22;2340;47.814;9.798;2023-05-07T07:48:07;16.70;99.90
4655;DHT22;2340;47.814;9.798;2023-05-07T07:50:33;16.70;99.90
4655;DHT22;2340;47.814;9.798;2023-05-07T07:52:58;16.70;99.90
4655;DHT22;2340;47.814;9.798;2023-05-07T07:55:23;16.80;99.90
4655;DHT22;2340;47.814;9.798;2023-05-07T07:57:49;17.00;99.90
4655;DHT22;2340;47.814;9.798;2023-05-07T08:00:15;17.20;99.90
4655;DHT22;2340;47.814;9.798;2023-05-07T08:02:41;17.20;99.90
4655;DHT22;2340;47.814;9.798;2023-05-07T08:05:07;17.20;99.90
4655;DHT22;2340;47.814;9.798;2023-05-07T08:07:32;17.40;99.90
4655;DHT22;2340;47.814;9.798;2023-05-07T08:09:58;17.30;99.90
4655;DHT22;2340;47.814;9.798;2023-05-07T08:12:24;17.20;99.90
4655;DHT22;2340;47.814;9.798;2023-05-07T08:14:49;17.20;99.90
4655;DHT22;2340;47.814;9.798;2023-05-07T08:17:15;17.40;99.90
4655;DHT22;2340;47.814;9.798;2023-05-07T08:19:41;17.50;99.90
4655;DHT22;2340;47.814;9.798;2023-05-07T08:22:07;17.50;99.90
4655;DHT22;2340;47.814;9.798;2023-05-07T08:24:32;17.50;99.90
4655;DHT22;2340;47.814;9.798;2023-05-07T08:26:57;17.50;99.90
4655;DHT22;2340;47.814;9.798;2023-05-07T08:29:23;17.50;99.90
4655;DHT22;2340;47.814;9.798;2023-05-07T08:31:48;17.60;99.90
4655;DHT22;2340;47.814;9.798;2023-05-07T08:34:14;17.60;99.90
4655;DHT22;2340;47.814;9.798;2023-05-07T08:36:39;17.70;99.90
4655;DHT22;2340;47.814;9.798;2023-05-07T08:39:07;17.60;99.90
4655;DHT22;2340;47.814;9.798;2023-05-07T08:41:32;17.70;99.90
4655;DHT22;2340;47.814;9.798;2023-05-07T08:43:58;17.80;99.90
4655;DHT22;2340;47.814;9.798;2023-05-07T08:46:25;17.80;99.90
4655;DHT22;2340;47.814;9.798;2023-05-07T08:48:51;17.90;99.90
4655;DHT22;2340;47.814;9.798;2023-05-07T08:51:20;17.90;99.90
4655;DHT22;2340;47.814;9.798;2023-05-07T08:53:46;18.00;99.90
4655;DHT22;2340;47.814;9.798;2023-05-07T08:56:13;18.10;99.90
4655;DHT22;2340;47.814;9.798;2023-05-07T08:58:40;18.10;99.90
4655;DHT22;2340;47.814;9.798;2023-05-07T09:01:09;18.10;99.90
4655;DHT22;2340;47.814;9.798;2023-05-07T09:03:39;18.20;99.90
4655;DHT22;2340;47.814;9.798;2023-05-07T09:06:04;18.20;99.90
4655;DHT22;2340;47.814;9.798;2023-05-07T09:08:32;18.20;99.90
4655;DHT22;2340;47.814;9.798;2023-05-07T09:10:57;18.10;99.90
4655;DHT22;2340;47.814;9.798;2023-05-07T09:13:23;18.20;99.90
4655;DHT22;2340;47.814;9.798;2023-05-07T09:15:48;18.30;99.90
4655;DHT22;2340;47.814;9.798;2023-05-07T09:18:14;18.40;99.90
4655;DHT22;2340;47.814;9.798;2023-05-07T09:20:40;18.40;99.90
4655;DHT22;2340;47.814;9.798;2023-05-07T09:23:06;18.50;99.90
4655;DHT22;2340;47.814;9.798;2023-05-07T09:25:33;18.70;99.90
4655;DHT22;2340;47.814;9.798;2023-05-07T09:28:00;18.80;99.90
4655;DHT22;2340;47.814;9.798;2023-05-07T09:30:32;19.00;99.90
4655;DHT22;2340;47.814;9.798;2023-05-07T09:32:58;19.00;99.90
4655;DHT22;2340;47.814;9.798;2023-05-07T09:35:24;19.10;99.90
4655;DHT22;2340;47.814;9.798;2023-05-07T09:37:53;19.00;99.90
4655;DHT22;2340;47.814;9.798;2023-05-07T09:40:28;19.00;99.90
4655;DHT22;2340;47.814;9.798;2023-05-07T09:42:53;19.10;99.90
4655;DHT22;2340;47.814;9.798;2023-05-07T09:45:24;19.20;99.90
4655;DHT22;2340;47.814;9.798;2023-05-07T09:47:50;19.40;99.90
4655;DHT22;2340;47.814;9.798;2023-05-07T09:50:18;19.50;99.90
4655;DHT22;2340;47.814;9.798;2023-05-07T09:52:44;19.70;99.90
4655;DHT22;2340;47.814;9.798;2023-05-07T09:55:10;19.80;99.90
4655;DHT22;2340;47.814;9.798;2023-05-07T09:57:36;20.00;99.90
4655;DHT22;2340;47.814;9.798;2023-05-07T10:00:02;20.10;99.90
4655;DHT22;2340;47.814;9.798;2023-05-07T10:02:29;20.30;99.90
4655;DHT22;2340;47.814;9.798;2023-05-07T10:04:55;20.20;99.90
4655;DHT22;2340;47.814;9.798;2023-05-07T10:07:21;20.10;99.90
4655;DHT22;2340;47.814;9.798;2023-05-07T10:09:48;20.10;99.90
4655;DHT22;2340;47.814;9.798;2023-05-07T10:12:13;20.10;99.90
4655;DHT22;2340;47.814;9.798;2023-05-07T10:14:39;20.00;99.90
4655;DHT22;2340;47.814;9.798;2023-05-07T10:17:05;20.10;99.90
4655;DHT22;2340;47.814;9.798;2023-05-07T10:19:31;20.30;99.90
4655;DHT22;2340;47.814;9.798;2023-05-07T10:22:16;20.50;99.90
4655;DHT22;2340;47.814;9.798;2023-05-07T10:24:42;20.70;99.90
4655;DHT22;2340;47.814;9.798;2023-05-07T10:27:09;20.80;99.90
4655;DHT22;2340;47.814;9.798;2023-05-07T10:29:44;20.90;99.90
4655;DHT22;2340;47.814;9.798;2023-05-07T10:34:45;21.20;99.90
4655;DHT22;2340;47.814;9.798;2023-05-07T10:37:12;21.20;99.90
4655;DHT22;2340;47.814;9.798;2023-05-07T10:39:38;21.40;99.90
4655;DHT22;2340;47.814;9.798;2023-05-07T10:42:10;21.60;99.90
4655;DHT22;2340;47.814;9.798;2023-05-07T10:44:35;21.70;99.90
4655;DHT22;2340;47.814;9.798;2023-05-07T10:47:12;21.60;99.90
4655;DHT22;2340;47.814;9.798;2023-05-07T10:54:41;21.60;99.90
4655;DHT22;2340;47.814;9.798;2023-05-07T10:59:51;21.80;99.90
4655;DHT22;2340;47.814;9.798;2023-05-07T11:02:17;21.50;99.90
4655;DHT22;2340;47.814;9.798;2023-05-07T11:04:42;21.60;99.90
4655;DHT22;2340;47.814;9.798;2023-05-07T11:17:34;21.40;99.90
4655;DHT22;2340;47.814;9.798;2023-05-07T11:20:00;21.30;99.90
4655;DHT22;2340;47.814;9.798;2023-05-07T11:25:06;21.40;99.90
4655;DHT22;2340;47.814;9.798;2023-05-07T11:27:32;21.40;99.90
4655;DHT22;2340;47.814;9.798;2023-05-07T11:29:58;21.40;99.90
4655;DHT22;2340;47.814;9.798;2023-05-07T11:32:27;21.60;99.90
4655;DHT22;2340;47.814;9.798;2023-05-07T11:34:54;21.90;99.90
4655;DHT22;2340;47.814;9.798;2023-05-07T11:37:20;22.10;99.90
4655;DHT22;2340;47.814;9.798;2023-05-07T11:39:46;22.00;99.90
4655;DHT22;2340;47.814;9.798;2023-05-07T11:44:55;22.10;99.90
4655;DHT22;2340;47.814;9.798;2023-05-07T11:47:21;22.60;99.90
4655;DHT22;2340;47.814;9.798;2023-05-07T11:49:50;23.20;99.90
4655;DHT22;2340;47.814;9.798;2023-05-07T11:52:17;23.30;99.90
4655;DHT22;2340;47.814;9.798;2023-05-07T11:54:52;23.60;99.90
4655;DHT22;2340;47.814;9.798;2023-05-07T11:57:18;23.90;99.90
4655;DHT22;2340;47.814;9.798;2023-05-07T11:59:43;23.70;99.90
4655;DHT22;2340;47.814;9.798;2023-05-07T12:02:15;23.60;99.90
4655;DHT22;2340;47.814;9.798;2023-05-07T12:04:41;23.70;99.90
4655;DHT22;2340;47.814;9.798;2023-05-07T12:07:15;24.20;99.90
4655;DHT22;2340;47.814;9.798;2023-05-07T12:09:42;24.70;99.90
4655;DHT22;2340;47.814;9.798;2023-05-07T12:12:07;24.80;99.90
4655;DHT22;2340;47.814;9.798;2023-05-07T12:14:37;25.00;99.90
4655;DHT22;2340;47.814;9.798;2023-05-07T12:17:03;25.80;99.90
4655;DHT22;2340;47.814;9.798;2023-05-07T12:19:29;26.40;99.90
4655;DHT22;2340;47.814;9.798;2023-05-07T12:21:55;27.10;99.90
4655;DHT22;2340;47.814;9.798;2023-05-07T12:24:21;27.80;99.90
4655;DHT22;2340;47.814;9.798;2023-05-07T12:26:47;28.40;99.90
4655;DHT22;2340;47.814;9.798;2023-05-07T12:29:13;28.80;99.90
4655;DHT22;2340;47.814;9.798;2023-05-07T12:31:42;29.00;99.90
4655;DHT22;2340;47.814;9.798;2023-05-07T12:34:07;29.30;99.90
4655;DHT22;2340;47.814;9.798;2023-05-07T12:36:37;29.50;99.90
4655;DHT22;2340;47.814;9.798;2023-05-07T12:39:03;29.70;99.90
4655;DHT22;2340;47.814;9.798;2023-05-07T12:41:29;29.60;99.90
4655;DHT22;2340;47.814;9.798;2023-05-07T12:43:56;29.50;99.90
4655;DHT22;2340;47.814;9.798;2023-05-07T12:46:21;29.20;99.90
4655;DHT22;2340;47.814;9.798;2023-05-07T12:48:48;29.20;99.90
4655;DHT22;2340;47.814;9.798;2023-05-07T12:51:14;29.20;99.90
4655;DHT22;2340;47.814;9.798;2023-05-07T12:53:41;29.10;99.90
4655;DHT22;2340;47.814;9.798;2023-05-07T12:56:10;29.30;99.90
4655;DHT22;2340;47.814;9.798;2023-05-07T12:58:35;29.50;99.90
4655;DHT22;2340;47.814;9.798;2023-05-07T13:01:05;30.00;99.90
4655;DHT22;2340;47.814;9.798;2023-05-07T13:03:31;30.20;97.00
4655;DHT22;2340;47.814;9.798;2023-05-07T13:06:01;30.40;98.90
4655;DHT22;2340;47.814;9.798;2023-05-07T13:08:34;30.70;98.70
4655;DHT22;2340;47.814;9.798;2023-05-07T13:11:00;31.10;97.50
4655;DHT22;2340;47.814;9.798;2023-05-07T13:13:32;31.20;98.30
4655;DHT22;2340;47.814;9.798;2023-05-07T13:15:57;31.40;96.70
4655;DHT22;2340;47.814;9.798;2023-05-07T13:18:24;31.40;97.50
4655;DHT22;2340;47.814;9.798;2023-05-07T13:20:49;31.70;96.00
4655;DHT22;2340;47.814;9.798;2023-05-07T13:23:15;32.10;96.70
4655;DHT22;2340;47.814;9.798;2023-05-07T13:25:40;32.30;97.00
4655;DHT22;2340;47.814;9.798;2023-05-07T13:28:06;32.10;95.40
4655;DHT22;2340;47.814;9.798;2023-05-07T13:30:32;32.10;94.80
4655;DHT22;2340;47.814;9.798;2023-05-07T13:32:57;31.90;94.40
4655;DHT22;2340;47.814;9.798;2023-05-07T13:35:23;31.90;94.70
4655;DHT22;2340;47.814;9.798;2023-05-07T13:37:48;32.20;95.30
4655;DHT22;2340;47.814;9.798;2023-05-07T13:40:14;32.00;93.90
4655;DHT22;2340;47.814;9.798;2023-05-07T13:42:40;31.90;94.80
4655;DHT22;2340;47.814;9.798;2023-05-07T13:45:06;31.70;93.10
4655;DHT22;2340;47.814;9.798;2023-05-07T13:47:32;30.20;91.80
4655;DHT22;2340;47.814;9.798;2023-05-07T13:49:58;29.70;94.00
4655;DHT22;2340;47.814;9.798;2023-05-07T13:52:23;29.00;93.80
4655;DHT22;2340;47.814;9.798;2023-05-07T13:54:49;28.90;93.10
4655;DHT22;2340;47.814;9.798;2023-05-07T13:57:14;28.90;93.30
4655;DHT22;2340;47.814;9.798;2023-05-07T13:59:40;28.50;94.00
4655;DHT22;2340;47.814;9.798;2023-05-07T14:02:06;28.00;93.90
4655;DHT22;2340;47.814;9.798;2023-05-07T14:04:31;27.50;95.10
4655;DHT22;2340;47.814;9.798;2023-05-07T14:06:57;27.40;95.70
4655;DHT22;2340;47.814;9.798;2023-05-07T14:09:22;27.30;95.80
4655;DHT22;2340;47.814;9.798;2023-05-07T14:11:48;27.20;95.70
4655;DHT22;2340;47.814;9.798;2023-05-07T14:14:19;27.10;95.60
4655;DHT22;2340;47.814;9.798;2023-05-07T14:16:45;27.00;95.00
4655;DHT22;2340;47.814;9.798;2023-05-07T14:19:11;26.70;95.00
4655;DHT22;2340;47.814;9.798;2023-05-07T14:21:36;26.90;95.90
4655;DHT22;2340;47.814;9.798;2023-05-07T14:24:02;27.10;95.60
4655;DHT22;2340;47.814;9.798;2023-05-07T14:26:27;27.10;95.90
4655;DHT22;2340;47.814;9.798;2023-05-07T14:28:53;26.90;96.10
4655;DHT22;2340;47.814;9.798;2023-05-07T14:31:20;26.70;96.50
4655;DHT22;2340;47.814;9.798;2023-05-07T14:33:46;26.40;96.80
4655;DHT22;2340;47.814;9.798;2023-05-07T14:36:11;26.20;97.20
4655;DHT22;2340;47.814;9.798;2023-05-07T14:38:37;25.90;97.30
4655;DHT22;2340;47.814;9.798;2023-05-07T14:41:02;25.50;97.40
4655;DHT22;2340;47.814;9.798;2023-05-07T14:43:28;25.30;97.50
4655;DHT22;2340;47.814;9.798;2023-05-07T14:45:53;25.10;97.80
4655;DHT22;2340;47.814;9.798;2023-05-07T14:48:19;24.90;97.80
4655;DHT22;2340;47.814;9.798;2023-05-07T14:50:46;24.60;97.80
4655;DHT22;2340;47.814;9.798;2023-05-07T14:53:12;24.50;98.40
4655;DHT22;2340;47.814;9.798;2023-05-07T14:55:37;24.40;98.40
4655;DHT22;2340;47.814;9.798;2023-05-07T14:58:03;24.60;98.80
4655;DHT22;2340;47.814;9.798;2023-05-07T15:00:29;25.20;98.20
4655;DHT22;2340;47.814;9.798;2023-05-07T15:02:56;25.60;98.50
4655;DHT22;2340;47.814;9.798;2023-05-07T15:05:26;25.60;98.50
4655;DHT22;2340;47.814;9.798;2023-05-07T15:07:52;25.50;98.50
4655;DHT22;2340;47.814;9.798;2023-05-07T15:10:17;25.10;98.50
4655;DHT22;2340;47.814;9.798;2023-05-07T15:12:43;24.90;98.70
4655;DHT22;2340;47.814;9.798;2023-05-07T15:15:08;24.60;99.10
4655;DHT22;2340;47.814;9.798;2023-05-07T15:17:34;24.30;99.70
4655;DHT22;2340;47.814;9.798;2023-05-07T15:20:00;24.10;99.90
4655;DHT22;2340;47.814;9.798;2023-05-07T15:22:26;23.90;99.80
4655;DHT22;2340;47.814;9.798;2023-05-07T15:24:51;23.50;99.90
4655;DHT22;2340;47.814;9.798;2023-05-07T15:27:17;23.30;99.90
4655;DHT22;2340;47.814;9.798;2023-05-07T15:29:42;23.10;99.90
4655;DHT22;2340;47.814;9.798;2023-05-07T15:32:08;23.00;99.90
4655;DHT22;2340;47.814;9.798;2023-05-07T15:34:33;22.70;99.90
4655;DHT22;2340;47.814;9.798;2023-05-07T15:36:59;22.50;99.90
4655;DHT22;2340;47.814;9.798;2023-05-07T15:39:24;22.40;99.90
4655;DHT22;2340;47.814;9.798;2023-05-07T15:41:50;22.10;99.90
4655;DHT22;2340;47.814;9.798;2023-05-07T15:44:15;21.90;99.90
4655;DHT22;2340;47.814;9.798;2023-05-07T15:46:41;21.80;99.90
4655;DHT22;2340;47.814;9.798;2023-05-07T15:49:06;21.70;99.90
4655;DHT22;2340;47.814;9.798;2023-05-07T15:51:34;21.70;99.90
4655;DHT22;2340;47.814;9.798;2023-05-07T15:53:59;21.90;99.90
4655;DHT22;2340;47.814;9.798;2023-05-07T15:56:25;22.10;99.90
4655;DHT22;2340;47.814;9.798;2023-05-07T15:58:51;22.30;99.90
4655;DHT22;2340;47.814;9.798;2023-05-07T16:01:17;22.70;99.90
4655;DHT22;2340;47.814;9.798;2023-05-07T16:03:43;23.00;99.90
4655;DHT22;2340;47.814;9.798;2023-05-07T16:06:09;23.30;99.90
4655;DHT22;2340;47.814;9.798;2023-05-07T16:08:36;23.40;99.90
4655;DHT22;2340;47.814;9.798;2023-05-07T16:11:03;23.60;99.90
4655;DHT22;2340;47.814;9.798;2023-05-07T16:13:29;23.60;99.90
4655;DHT22;2340;47.814;9.798;2023-05-07T16:15:55;23.50;99.90
4655;DHT22;2340;47.814;9.798;2023-05-07T16:18:21;23.30;99.90
4655;DHT22;2340;47.814;9.798;2023-05-07T16:20:47;23.00;99.90